Flight Track Log - Related Links

Times and Time Zones

All times are in EDT time to prevent confusion due to time zone crossing. See the TAM3741 flight status page for this flight to view local times or setup timezone preferences in your user account.

Time Position Orientation Groundspeed Altitude Reporting Facility
EDT Latitude Longitude Course Direction KTS MPH feet Rate Location/Type
Mon 09:37:00 AM -2.3294 -44.5761 104° East  Level Estimated
Mon 09:38:00 AM -2.3519 -44.4832 104° East  Level Estimated
Mon 09:39:00 AM -2.3744 -44.3903 104° East  Level Estimated
Mon 09:40:00 AM -2.3969 -44.2974 104° East  Level Estimated
Mon 09:41:00 AM -2.4194 -44.2044 104° East  Level Estimated
Mon 09:42:00 AM -2.4419 -44.1115 104° East  Level Estimated
Mon 09:43:00 AM -2.4644 -44.0186 104° East  Level Estimated
Mon 09:44:00 AM -2.4869 -43.9257 104° East  Level Estimated
Mon 09:45:00 AM -2.5093 -43.8327 104° East  Level Estimated
Mon 09:46:00 AM -2.5318 -43.7398 104° East  Level Estimated
Mon 09:47:00 AM -2.5542 -43.6468 104° East  Level Estimated
Mon 09:48:00 AM -2.5767 -43.5539 104° East  Level Estimated
Mon 09:49:00 AM -2.5991 -43.4609 104° East  Level Estimated
Mon 09:50:00 AM -2.6215 -43.3680 104° East  Level Estimated
Mon 09:51:00 AM -2.6440 -43.2750 104° East  Level Estimated
Mon 09:52:00 AM -2.6664 -43.1821 104° East  Level Estimated
Mon 09:53:00 AM -2.6888 -43.0891 104° East  Level Estimated
Mon 09:54:00 AM -2.7112 -42.9961 104° East  Level Estimated
Mon 09:55:00 AM -2.7336 -42.9032 104° East  Level Estimated
Mon 09:56:00 AM -2.7560 -42.8102 104° East  Level Estimated
Mon 09:57:00 AM -2.7784 -42.7172 104° East  Level Estimated
Mon 09:58:00 AM -2.8007 -42.6242 104° East  Level Estimated
Mon 09:59:00 AM -2.8231 -42.5312 104° East  Level Estimated
Mon 10:00:00 AM -2.8455 -42.4383 104° East  Level Estimated
Mon 10:01:00 AM -2.8678 -42.3453 104° East  Level Estimated
Mon 10:02:00 AM -2.8902 -42.2523 104° East  Level Estimated
Mon 10:03:00 AM -2.9125 -42.1593 104° East  Level Estimated
Mon 10:04:00 AM -2.9348 -42.0663 104° East  Level Estimated
Mon 10:05:00 AM -2.9571 -41.9733 104° East  Level Estimated
Mon 10:06:00 AM -2.9794 -41.8802 104° East  Level Estimated
Mon 10:07:00 AM -3.0018 -41.7872 104° East  Level Estimated
Mon 10:08:00 AM -3.0241 -41.6942 104° East  Level Estimated
Mon 10:09:00 AM -3.0464 -41.6012 103° East  Level Estimated
Mon 10:10:00 AM -3.0686 -41.5082 103° East  Level Estimated
Mon 10:11:00 AM -3.0909 -41.4151 103° East  Level Estimated
Mon 10:12:00 AM -3.1132 -41.3221 103° East  Level Estimated
Mon 10:13:00 AM -3.1354 -41.2291 103° East  Level Estimated
Mon 10:14:00 AM -3.1577 -41.1360 103° East  Level Estimated
Mon 10:15:00 AM -3.1799 -41.0430 103° East  Level Estimated
Mon 10:16:00 AM -3.2022 -40.9499 103° East  Level Estimated
Mon 10:17:00 AM -3.2244 -40.8569 103° East  Level Estimated
Mon 10:18:00 AM -3.2466 -40.7638 103° East  Level Estimated
Mon 10:19:00 AM -3.2688 -40.6707 103° East  Level Estimated
Mon 10:20:00 AM -3.2910 -40.5777 103° East  Level Estimated
Mon 10:21:00 AM -3.3132 -40.4846 103° East  Level Estimated
Mon 10:22:00 AM -3.3354 -40.3915 103° East  Level Estimated
Mon 10:23:00 AM -3.3575 -40.2985 103° East  Level Estimated
Mon 10:24:00 AM -3.3797 -40.2054 103° East  Level Estimated
Mon 10:25:00 AM -3.4019 -40.1123 103° East  Level Estimated
Mon 10:26:00 AM -3.4240 -40.0192 103° East  Level Estimated
Mon 10:27:00 AM -3.4462 -39.9261 103° East  Level Estimated
Mon 10:28:00 AM -3.4683 -39.8330 103° East  Level Estimated
Mon 10:29:00 AM -3.4904 -39.7399 103° East  Level Estimated
Mon 10:30:00 AM -3.5125 -39.6468 103° East  Level Estimated
Mon 10:31:00 AM -3.5346 -39.5537 103° East  Level Estimated
Mon 10:32:00 AM -3.5567 -39.4606 103° East  Level Estimated
Mon 10:33:00 AM -3.5788 -39.3674 103° East  Level Estimated
Mon 10:34:00 AM -3.6009 -39.2743 103° East  Level Estimated
Mon 10:35:00 AM -3.6229 -39.1812 103° East  Level Estimated
Mon 10:36:00 AM -3.6450 -39.0880 103° East  Level Estimated
Mon 10:37:00 AM -3.6670 -38.9949 103° East  Level Estimated
Mon 10:38:00 AM -3.6890 -38.9018 103° East  Level Estimated
Mon 10:39:00 AM -3.7111 -38.8086 103° East  Level Estimated
Mon 10:40:00 AM -3.7331 -38.7155 103° East  Level Estimated
Mon 10:41:00 AM -3.7551 -38.6223 103° East  Level Estimated
Mon 10:42:00 AM -3.7763 -38.5326 103° East  Level Estimated
Mon 10:43:00 AM -3.7763 -38.5326 127° Southeast  Level Estimated
Mon 10:44:00 AM -3.7763 -38.5326 127° Southeast  Level Estimated
Mon 10:45:00 AM -3.7763 -38.5326 127° Southeast  Level Estimated
Mon 10:46:00 AM -3.7763 -38.5326 127° Southeast  Level Estimated
Mon 10:47:00 AM -3.7763 -38.5326 127° Southeast  Level Estimated
Mon 10:48:00 AM -3.7763 -38.5326 127° Southeast  Level Estimated
Mon 10:49:00 AM -3.7763 -38.5326 127° Southeast  Level Estimated
Mon 10:50:00 AM -3.7763 -38.5326 127° Southeast  Level Estimated
Mon 10:51:00 AM -3.7763 -38.5326 127° Southeast  Level Estimated
Mon 10:52:00 AM -3.7763 -38.5326 127° Southeast  Level Estimated
Mon 10:53:00 AM -3.7763 -38.5326 127° Southeast  Level Estimated
Mon 10:54:00 AM -3.7763 -38.5326 127° Southeast  Level Estimated
Mon 10:55:00 AM -3.7763 -38.5326 127° Southeast  Level Estimated
Mon 10:56:00 AM -3.7763 -38.5326 127° Southeast  Level Estimated
Mon 10:57:00 AM -3.7763 -38.5326 127° Southeast  Level Estimated
Mon 10:58:00 AM -3.7763 -38.5326 127° Southeast  Level Estimated

Login

Don't have an account? Register now (free) for customized features, flight alerts, and more!